sensor_id;sensor_type;location;lat;lon;timestamp;pressure;altitude;pressure_sealevel;temperature
11926;BMP180;6022;48.768;18.608;2022-07-17T00:00:26;99101.00;;;17.07
11926;BMP180;6022;48.768;18.608;2022-07-17T00:02:53;99101.34;;;17.03
11926;BMP180;6022;48.768;18.608;2022-07-17T00:05:21;99104.84;;;17.02
11926;BMP180;6022;48.768;18.608;2022-07-17T00:07:48;99111.84;;;17.00
11926;BMP180;6022;48.768;18.608;2022-07-17T00:10:17;99116.19;;;16.89
11926;BMP180;6022;48.768;18.608;2022-07-17T00:12:45;99115.72;;;16.84
11926;BMP180;6022;48.768;18.608;2022-07-17T00:15:12;99130.78;;;16.77
11926;BMP180;6022;48.768;18.608;2022-07-17T00:17:40;99125.28;;;16.71
11926;BMP180;6022;48.768;18.608;2022-07-17T00:20:09;99123.56;;;16.61
11926;BMP180;6022;48.768;18.608;2022-07-17T00:22:40;99124.25;;;16.52
11926;BMP180;6022;48.768;18.608;2022-07-17T00:25:10;99125.19;;;16.40
11926;BMP180;6022;48.768;18.608;2022-07-17T00:27:38;99116.78;;;16.27
11926;BMP180;6022;48.768;18.608;2022-07-17T00:30:06;99110.50;;;16.20
11926;BMP180;6022;48.768;18.608;2022-07-17T00:32:34;99117.25;;;16.21
11926;BMP180;6022;48.768;18.608;2022-07-17T00:35:02;99112.34;;;16.18
11926;BMP180;6022;48.768;18.608;2022-07-17T00:37:36;99125.59;;;16.12
11926;BMP180;6022;48.768;18.608;2022-07-17T00:40:05;99122.31;;;16.10
11926;BMP180;6022;48.768;18.608;2022-07-17T00:42:33;99129.53;;;16.05
11926;BMP180;6022;48.768;18.608;2022-07-17T00:45:03;99123.25;;;15.98
11926;BMP180;6022;48.768;18.608;2022-07-17T00:47:30;99127.97;;;15.92
11926;BMP180;6022;48.768;18.608;2022-07-17T00:49:57;99136.72;;;15.89
11926;BMP180;6022;48.768;18.608;2022-07-17T00:52:24;99136.22;;;15.85
11926;BMP180;6022;48.768;18.608;2022-07-17T00:54:53;99130.09;;;15.64
11926;BMP180;6022;48.768;18.608;2022-07-17T00:57:45;99135.63;;;15.47
11926;BMP180;6022;48.768;18.608;2022-07-17T01:00:16;99134.53;;;15.39
11926;BMP180;6022;48.768;18.608;2022-07-17T01:02:52;99134.66;;;15.37
11926;BMP180;6022;48.768;18.608;2022-07-17T01:05:21;99126.28;;;15.35
11926;BMP180;6022;48.768;18.608;2022-07-17T01:07:51;99132.63;;;15.30
11926;BMP180;6022;48.768;18.608;2022-07-17T01:10:21;99131.53;;;15.21
11926;BMP180;6022;48.768;18.608;2022-07-17T01:12:48;99140.13;;;15.20
11926;BMP180;6022;48.768;18.608;2022-07-17T01:15:15;99139.19;;;15.21
11926;BMP180;6022;48.768;18.608;2022-07-17T01:17:43;99136.97;;;15.17
11926;BMP180;6022;48.768;18.608;2022-07-17T01:20:12;99144.94;;;15.12
11926;BMP180;6022;48.768;18.608;2022-07-17T01:22:46;99147.09;;;15.06
11926;BMP180;6022;48.768;18.608;2022-07-17T01:25:23;99139.66;;;15.03
11926;BMP180;6022;48.768;18.608;2022-07-17T01:27:51;99139.97;;;14.99
11926;BMP180;6022;48.768;18.608;2022-07-17T01:30:19;99139.06;;;15.00
11926;BMP180;6022;48.768;18.608;2022-07-17T01:32:46;99145.41;;;14.94
11926;BMP180;6022;48.768;18.608;2022-07-17T01:35:15;99141.34;;;14.92
11926;BMP180;6022;48.768;18.608;2022-07-17T01:37:43;99144.78;;;14.91
11926;BMP180;6022;48.768;18.608;2022-07-17T01:40:14;99147.53;;;14.88
11926;BMP180;6022;48.768;18.608;2022-07-17T01:42:48;99140.13;;;14.85
11926;BMP180;6022;48.768;18.608;2022-07-17T01:45:18;99140.03;;;14.74
11926;BMP180;6022;48.768;18.608;2022-07-17T01:47:47;99144.34;;;14.61
11926;BMP180;6022;48.768;18.608;2022-07-17T01:50:15;99140.78;;;14.51
11926;BMP180;6022;48.768;18.608;2022-07-17T01:52:45;99143.03;;;14.43
11926;BMP180;6022;48.768;18.608;2022-07-17T01:55:14;99134.66;;;14.41
11926;BMP180;6022;48.768;18.608;2022-07-17T01:57:43;99146.81;;;14.38
11926;BMP180;6022;48.768;18.608;2022-07-17T02:00:16;99135.91;;;14.36
11926;BMP180;6022;48.768;18.608;2022-07-17T02:02:44;99152.34;;;14.32
11926;BMP180;6022;48.768;18.608;2022-07-17T02:05:12;99146.63;;;14.29
11926;BMP180;6022;48.768;18.608;2022-07-17T02:07:40;99148.66;;;14.24
11926;BMP180;6022;48.768;18.608;2022-07-17T02:10:09;99150.59;;;14.20
11926;BMP180;6022;48.768;18.608;2022-07-17T02:12:37;99150.81;;;14.17
11926;BMP180;6022;48.768;18.608;2022-07-17T02:15:06;99159.25;;;14.05
11926;BMP180;6022;48.768;18.608;2022-07-17T02:17:33;99167.28;;;13.99
11926;BMP180;6022;48.768;18.608;2022-07-17T02:20:01;99153.59;;;13.88
11926;BMP180;6022;48.768;18.608;2022-07-17T02:22:29;99160.28;;;13.77
11926;BMP180;6022;48.768;18.608;2022-07-17T02:24:56;99162.00;;;13.64
11926;BMP180;6022;48.768;18.608;2022-07-17T02:27:23;99170.25;;;13.55
11926;BMP180;6022;48.768;18.608;2022-07-17T02:29:50;99172.88;;;13.54
11926;BMP180;6022;48.768;18.608;2022-07-17T02:32:18;99176.34;;;13.53
11926;BMP180;6022;48.768;18.608;2022-07-17T02:34:45;99177.97;;;13.54
11926;BMP180;6022;48.768;18.608;2022-07-17T02:37:12;99176.34;;;13.53
11926;BMP180;6022;48.768;18.608;2022-07-17T02:39:40;99171.97;;;13.55
11926;BMP180;6022;48.768;18.608;2022-07-17T02:42:28;99177.59;;;13.59
11926;BMP180;6022;48.768;18.608;2022-07-17T02:44:58;99178.84;;;13.66
11926;BMP180;6022;48.768;18.608;2022-07-17T02:47:32;99181.66;;;13.62
11926;BMP180;6022;48.768;18.608;2022-07-17T02:50:03;99177.59;;;13.59
11926;BMP180;6022;48.768;18.608;2022-07-17T02:52:31;99174.72;;;13.52
11926;BMP180;6022;48.768;18.608;2022-07-17T02:54:58;99180.22;;;13.46
11926;BMP180;6022;48.768;18.608;2022-07-17T02:57:26;99177.13;;;13.41
11926;BMP180;6022;48.768;18.608;2022-07-17T02:59:53;99176.72;;;13.47
11926;BMP180;6022;48.768;18.608;2022-07-17T03:02:21;99186.13;;;13.46
11926;BMP180;6022;48.768;18.608;2022-07-17T03:04:49;99181.81;;;13.47
11926;BMP180;6022;48.768;18.608;2022-07-17T03:07:16;99188.94;;;13.42
11926;BMP180;6022;48.768;18.608;2022-07-17T03:09:43;99185.66;;;13.40
11926;BMP180;6022;48.768;18.608;2022-07-17T03:12:10;99187.31;;;13.41
11926;BMP180;6022;48.768;18.608;2022-07-17T03:14:38;99193.84;;;13.45
11926;BMP180;6022;48.768;18.608;2022-07-17T03:17:06;99198.41;;;13.40
11926;BMP180;6022;48.768;18.608;2022-07-17T03:19:34;99200.22;;;13.38
11926;BMP180;6022;48.768;18.608;2022-07-17T03:22:01;99198.53;;;13.38
11926;BMP180;6022;48.768;18.608;2022-07-17T03:24:29;99208.72;;;13.38
11926;BMP180;6022;48.768;18.608;2022-07-17T03:26:57;99218.28;;;13.35
11926;BMP180;6022;48.768;18.608;2022-07-17T03:29:24;99217.44;;;13.34
11926;BMP180;6022;48.768;18.608;2022-07-17T03:31:51;99225.22;;;13.33
11926;BMP180;6022;48.768;18.608;2022-07-17T03:34:19;99217.25;;;13.37
11926;BMP180;6022;48.768;18.608;2022-07-17T03:36:46;99223.16;;;13.38
11926;BMP180;6022;48.768;18.608;2022-07-17T03:39:14;99218.47;;;13.32
11926;BMP180;6022;48.768;18.608;2022-07-17T03:41:42;99233.75;;;13.32
11926;BMP180;6022;48.768;18.608;2022-07-17T03:44:10;99231.94;;;13.34
11926;BMP180;6022;48.768;18.608;2022-07-17T03:46:37;99225.25;;;13.45
11926;BMP180;6022;48.768;18.608;2022-07-17T03:49:05;99227.63;;;13.74
11926;BMP180;6022;48.768;18.608;2022-07-17T03:51:33;99243.91;;;13.98
11926;BMP180;6022;48.768;18.608;2022-07-17T03:54:01;99236.31;;;14.10
11926;BMP180;6022;48.768;18.608;2022-07-17T03:56:28;99234.72;;;14.22
11926;BMP180;6022;48.768;18.608;2022-07-17T03:58:55;99231.25;;;14.23
11926;BMP180;6022;48.768;18.608;2022-07-17T04:01:23;99233.91;;;14.21
11926;BMP180;6022;48.768;18.608;2022-07-17T04:03:50;99238.59;;;14.27
11926;BMP180;6022;48.768;18.608;2022-07-17T04:06:18;99237.38;;;14.33
11926;BMP180;6022;48.768;18.608;2022-07-17T04:08:45;99237.06;;;14.25
11926;BMP180;6022;48.768;18.608;2022-07-17T04:11:12;99239.09;;;14.20
11926;BMP180;6022;48.768;18.608;2022-07-17T04:13:40;99245.94;;;14.19
11926;BMP180;6022;48.768;18.608;2022-07-17T04:16:07;99246.34;;;14.26
11926;BMP180;6022;48.768;18.608;2022-07-17T04:18:36;99247.69;;;14.31
11926;BMP180;6022;48.768;18.608;2022-07-17T04:21:08;99255.25;;;14.33
11926;BMP180;6022;48.768;18.608;2022-07-17T04:23:36;99250.78;;;14.36
11926;BMP180;6022;48.768;18.608;2022-07-17T04:26:05;99252.88;;;14.30
11926;BMP180;6022;48.768;18.608;2022-07-17T04:28:39;99249.22;;;14.21
11926;BMP180;6022;48.768;18.608;2022-07-17T04:31:07;99263.00;;;14.19
11926;BMP180;6022;48.768;18.608;2022-07-17T04:33:34;99254.00;;;14.13
11926;BMP180;6022;48.768;18.608;2022-07-17T04:36:02;99260.81;;;14.13
11926;BMP180;6022;48.768;18.608;2022-07-17T04:38:29;99256.97;;;14.20
11926;BMP180;6022;48.768;18.608;2022-07-17T04:40:56;99261.66;;;14.26
11926;BMP180;6022;48.768;18.608;2022-07-17T04:43:24;99262.91;;;14.33
11926;BMP180;6022;48.768;18.608;2022-07-17T04:45:52;99258.84;;;14.67
11926;BMP180;6022;48.768;18.608;2022-07-17T04:48:20;99255.34;;;15.30
11926;BMP180;6022;48.768;18.608;2022-07-17T04:50:47;99261.41;;;15.88
11926;BMP180;6022;48.768;18.608;2022-07-17T04:53:15;99267.91;;;16.49
11926;BMP180;6022;48.768;18.608;2022-07-17T04:55:49;99268.03;;;17.25
11926;BMP180;6022;48.768;18.608;2022-07-17T04:58:16;99261.81;;;17.91
11926;BMP180;6022;48.768;18.608;2022-07-17T05:00:44;99266.56;;;18.78
11926;BMP180;6022;48.768;18.608;2022-07-17T05:03:11;99262.59;;;19.72
11926;BMP180;6022;48.768;18.608;2022-07-17T05:05:40;99269.81;;;20.62
11926;BMP180;6022;48.768;18.608;2022-07-17T05:08:07;99265.56;;;21.52
11926;BMP180;6022;48.768;18.608;2022-07-17T05:10:34;99265.38;;;22.24
11926;BMP180;6022;48.768;18.608;2022-07-17T05:13:02;99267.13;;;22.41
11926;BMP180;6022;48.768;18.608;2022-07-17T05:15:29;99262.09;;;22.65
11926;BMP180;6022;48.768;18.608;2022-07-17T05:18:04;99257.34;;;22.95
11926;BMP180;6022;48.768;18.608;2022-07-17T05:20:31;99260.03;;;23.18
11926;BMP180;6022;48.768;18.608;2022-07-17T05:22:58;99260.13;;;23.75
11926;BMP180;6022;48.768;18.608;2022-07-17T05:25:26;99261.09;;;23.90
11926;BMP180;6022;48.768;18.608;2022-07-17T05:27:53;99261.03;;;24.39
11926;BMP180;6022;48.768;18.608;2022-07-17T05:30:20;99269.25;;;24.82
11926;BMP180;6022;48.768;18.608;2022-07-17T05:32:48;99266.63;;;24.90
11926;BMP180;6022;48.768;18.608;2022-07-17T05:35:15;99277.00;;;25.43
11926;BMP180;6022;48.768;18.608;2022-07-17T05:37:42;99272.88;;;26.17
11926;BMP180;6022;48.768;18.608;2022-07-17T05:40:10;99269.09;;;26.78
11926;BMP180;6022;48.768;18.608;2022-07-17T05:42:37;99276.63;;;26.96
11926;BMP180;6022;48.768;18.608;2022-07-17T05:45:05;99277.09;;;26.99
11926;BMP180;6022;48.768;18.608;2022-07-17T05:47:33;99279.69;;;27.28
11926;BMP180;6022;48.768;18.608;2022-07-17T05:50:00;99275.25;;;26.85
11926;BMP180;6022;48.768;18.608;2022-07-17T05:52:27;99284.00;;;27.49
11926;BMP180;6022;48.768;18.608;2022-07-17T05:54:55;99282.25;;;28.06
11926;BMP180;6022;48.768;18.608;2022-07-17T05:57:22;99287.88;;;28.23
11926;BMP180;6022;48.768;18.608;2022-07-17T05:59:49;99283.94;;;28.75
11926;BMP180;6022;48.768;18.608;2022-07-17T06:02:17;99286.59;;;29.49
11926;BMP180;6022;48.768;18.608;2022-07-17T06:04:44;99282.47;;;29.67
11926;BMP180;6022;48.768;18.608;2022-07-17T06:07:12;99281.19;;;29.50
11926;BMP180;6022;48.768;18.608;2022-07-17T06:09:39;99283.00;;;30.03
11926;BMP180;6022;48.768;18.608;2022-07-17T06:12:07;99288.31;;;30.47
11926;BMP180;6022;48.768;18.608;2022-07-17T06:14:34;99284.66;;;30.36
11926;BMP180;6022;48.768;18.608;2022-07-17T06:17:01;99293.97;;;30.83
11926;BMP180;6022;48.768;18.608;2022-07-17T06:19:29;99289.06;;;31.19
11926;BMP180;6022;48.768;18.608;2022-07-17T06:21:56;99286.81;;;31.35
11926;BMP180;6022;48.768;18.608;2022-07-17T06:24:23;99295.91;;;31.89
11926;BMP180;6022;48.768;18.608;2022-07-17T06:26:51;99291.56;;;32.07
11926;BMP180;6022;48.768;18.608;2022-07-17T06:29:18;99286.34;;;32.31
11926;BMP180;6022;48.768;18.608;2022-07-17T06:31:46;99290.09;;;32.72
11926;BMP180;6022;48.768;18.608;2022-07-17T06:34:13;99294.41;;;32.84
11926;BMP180;6022;48.768;18.608;2022-07-17T06:36:40;99290.53;;;32.93
11926;BMP180;6022;48.768;18.608;2022-07-17T06:39:08;99290.03;;;33.03
11926;BMP180;6022;48.768;18.608;2022-07-17T06:41:35;99296.09;;;33.21
11926;BMP180;6022;48.768;18.608;2022-07-17T06:44:02;99285.59;;;33.56
11926;BMP180;6022;48.768;18.608;2022-07-17T06:46:30;99292.75;;;33.85
11926;BMP180;6022;48.768;18.608;2022-07-17T06:48:57;99291.44;;;34.05
11926;BMP180;6022;48.768;18.608;2022-07-17T06:51:25;99302.34;;;34.72
11926;BMP180;6022;48.768;18.608;2022-07-17T06:53:52;99299.72;;;34.61
11926;BMP180;6022;48.768;18.608;2022-07-17T06:56:23;99292.47;;;33.57
11926;BMP180;6022;48.768;18.608;2022-07-17T06:58:51;99296.53;;;33.00
11926;BMP180;6022;48.768;18.608;2022-07-17T07:01:18;99297.69;;;33.22
11926;BMP180;6022;48.768;18.608;2022-07-17T07:03:46;99288.34;;;32.84
11926;BMP180;6022;48.768;18.608;2022-07-17T07:06:14;99287.44;;;32.17
11926;BMP180;6022;48.768;18.608;2022-07-17T07:08:41;99286.00;;;31.91
11926;BMP180;6022;48.768;18.608;2022-07-17T07:11:08;99284.25;;;31.03
11926;BMP180;6022;48.768;18.608;2022-07-17T07:13:36;99284.09;;;30.40
11926;BMP180;6022;48.768;18.608;2022-07-17T07:16:05;99292.69;;;31.18
11926;BMP180;6022;48.768;18.608;2022-07-17T07:18:32;99286.84;;;31.78
11926;BMP180;6022;48.768;18.608;2022-07-17T07:21:00;99297.63;;;32.93
11926;BMP180;6022;48.768;18.608;2022-07-17T07:23:27;99294.78;;;33.12
11926;BMP180;6022;48.768;18.608;2022-07-17T07:25:54;99288.81;;;31.96
11926;BMP180;6022;48.768;18.608;2022-07-17T07:28:22;99302.00;;;32.50
11926;BMP180;6022;48.768;18.608;2022-07-17T07:30:50;99297.56;;;33.88
11926;BMP180;6022;48.768;18.608;2022-07-17T07:33:17;99301.63;;;34.02
11926;BMP180;6022;48.768;18.608;2022-07-17T07:35:44;99295.88;;;35.09
11926;BMP180;6022;48.768;18.608;2022-07-17T07:38:16;99305.31;;;35.66
11926;BMP180;6022;48.768;18.608;2022-07-17T07:40:44;99297.19;;;34.43
11926;BMP180;6022;48.768;18.608;2022-07-17T07:43:11;99295.59;;;34.13
11926;BMP180;6022;48.768;18.608;2022-07-17T07:45:39;99304.03;;;34.44
11926;BMP180;6022;48.768;18.608;2022-07-17T07:48:09;99308.09;;;34.69
11926;BMP180;6022;48.768;18.608;2022-07-17T07:50:39;99305.16;;;33.96
11926;BMP180;6022;48.768;18.608;2022-07-17T07:53:08;99304.25;;;34.02
11926;BMP180;6022;48.768;18.608;2022-07-17T07:55:35;99304.91;;;34.67
11926;BMP180;6022;48.768;18.608;2022-07-17T07:58:09;99309.56;;;33.66
11926;BMP180;6022;48.768;18.608;2022-07-17T08:00:40;99295.94;;;34.68
11926;BMP180;6022;48.768;18.608;2022-07-17T08:03:07;99302.59;;;35.89
11926;BMP180;6022;48.768;18.608;2022-07-17T08:05:35;99314.28;;;36.48
11926;BMP180;6022;48.768;18.608;2022-07-17T08:08:03;99308.47;;;37.00
11926;BMP180;6022;48.768;18.608;2022-07-17T08:10:30;99313.56;;;37.39
11926;BMP180;6022;48.768;18.608;2022-07-17T08:12:58;99315.72;;;36.88
11926;BMP180;6022;48.768;18.608;2022-07-17T08:15:25;99324.06;;;35.92
11926;BMP180;6022;48.768;18.608;2022-07-17T08:17:53;99317.72;;;35.54
11926;BMP180;6022;48.768;18.608;2022-07-17T08:20:22;99320.00;;;36.29
11926;BMP180;6022;48.768;18.608;2022-07-17T08:22:50;99326.78;;;37.02
11926;BMP180;6022;48.768;18.608;2022-07-17T08:25:34;99319.06;;;37.75
11926;BMP180;6022;48.768;18.608;2022-07-17T08:28:22;99327.38;;;37.62
11926;BMP180;6022;48.768;18.608;2022-07-17T08:30:50;99326.00;;;36.68
11926;BMP180;6022;48.768;18.608;2022-07-17T08:33:17;99325.94;;;36.08
11926;BMP180;6022;48.768;18.608;2022-07-17T08:35:45;99328.91;;;36.23
11926;BMP180;6022;48.768;18.608;2022-07-17T08:38:13;99319.25;;;36.77
11926;BMP180;6022;48.768;18.608;2022-07-17T08:40:41;99326.78;;;37.02
11926;BMP180;6022;48.768;18.608;2022-07-17T08:43:10;99320.34;;;35.66
11926;BMP180;6022;48.768;18.608;2022-07-17T08:45:39;99325.31;;;36.29
11926;BMP180;6022;48.768;18.608;2022-07-17T08:48:16;99320.66;;;36.64
11926;BMP180;6022;48.768;18.608;2022-07-17T08:50:45;99328.13;;;37.04
11926;BMP180;6022;48.768;18.608;2022-07-17T08:53:13;99323.59;;;35.56
11926;BMP180;6022;48.768;18.608;2022-07-17T08:55:40;99322.56;;;34.78
11926;BMP180;6022;48.768;18.608;2022-07-17T08:58:07;99316.41;;;34.03
11926;BMP180;6022;48.768;18.608;2022-07-17T09:00:35;99322.38;;;35.13
11926;BMP180;6022;48.768;18.608;2022-07-17T09:03:07;99319.06;;;34.43
11926;BMP180;6022;48.768;18.608;2022-07-17T09:05:40;99319.28;;;34.01
11926;BMP180;6022;48.768;18.608;2022-07-17T09:08:18;99326.47;;;33.77
11926;BMP180;6022;48.768;18.608;2022-07-17T09:10:50;99328.31;;;33.16
11926;BMP180;6022;48.768;18.608;2022-07-17T09:13:22;99319.19;;;33.19
11926;BMP180;6022;48.768;18.608;2022-07-17T09:15:58;99335.44;;;34.05
11926;BMP180;6022;48.768;18.608;2022-07-17T09:18:25;99340.50;;;34.99
11926;BMP180;6022;48.768;18.608;2022-07-17T09:20:56;99329.59;;;34.95
11926;BMP180;6022;48.768;18.608;2022-07-17T09:23:27;99323.53;;;34.14
11926;BMP180;6022;48.768;18.608;2022-07-17T09:25:56;99320.22;;;33.89
11926;BMP180;6022;48.768;18.608;2022-07-17T09:28:24;99319.66;;;34.45
11926;BMP180;6022;48.768;18.608;2022-07-17T09:30:54;99325.44;;;35.95
11926;BMP180;6022;48.768;18.608;2022-07-17T09:33:27;99322.72;;;35.40
11926;BMP180;6022;48.768;18.608;2022-07-17T09:36:10;99322.69;;;34.83
11926;BMP180;6022;48.768;18.608;2022-07-17T09:38:42;99315.69;;;35.22
11926;BMP180;6022;48.768;18.608;2022-07-17T09:41:13;99318.19;;;34.72
11926;BMP180;6022;48.768;18.608;2022-07-17T09:46:25;99308.81;;;35.21
11926;BMP180;6022;48.768;18.608;2022-07-17T09:48:58;99306.53;;;34.28
11926;BMP180;6022;48.768;18.608;2022-07-17T09:51:33;99308.13;;;33.53
11926;BMP180;6022;48.768;18.608;2022-07-17T09:54:04;99316.44;;;33.67
11926;BMP180;6022;48.768;18.608;2022-07-17T09:56:35;99308.09;;;33.88
11926;BMP180;6022;48.768;18.608;2022-07-17T09:59:14;99312.34;;;33.89
11926;BMP180;6022;48.768;18.608;2022-07-17T10:01:44;99307.53;;;32.91
11926;BMP180;6022;48.768;18.608;2022-07-17T10:04:13;99304.31;;;32.34
11926;BMP180;6022;48.768;18.608;2022-07-17T10:06:40;99308.84;;;33.00
11926;BMP180;6022;48.768;18.608;2022-07-17T10:09:08;99308.41;;;34.38
11926;BMP180;6022;48.768;18.608;2022-07-17T10:11:39;99300.69;;;34.26
11926;BMP180;6022;48.768;18.608;2022-07-17T10:14:16;99301.94;;;33.05
11926;BMP180;6022;48.768;18.608;2022-07-17T10:16:45;99295.44;;;32.35
11926;BMP180;6022;48.768;18.608;2022-07-17T10:19:21;99294.22;;;32.62
11926;BMP180;6022;48.768;18.608;2022-07-17T10:21:59;99294.00;;;33.83
11926;BMP180;6022;48.768;18.608;2022-07-17T10:24:30;99294.28;;;34.04
11926;BMP180;6022;48.768;18.608;2022-07-17T10:26:59;99293.19;;;34.52
11926;BMP180;6022;48.768;18.608;2022-07-17T10:30:01;99294.69;;;33.01
11926;BMP180;6022;48.768;18.608;2022-07-17T10:32:29;99290.97;;;33.08
11926;BMP180;6022;48.768;18.608;2022-07-17T10:35:08;99298.53;;;33.22
11926;BMP180;6022;48.768;18.608;2022-07-17T10:43:02;99292.47;;;34.04
11926;BMP180;6022;48.768;18.608;2022-07-17T10:48:15;99290.94;;;32.90
11926;BMP180;6022;48.768;18.608;2022-07-17T10:50:52;99280.41;;;32.66
11926;BMP180;6022;48.768;18.608;2022-07-17T10:53:32;99289.69;;;33.17
11926;BMP180;6022;48.768;18.608;2022-07-17T10:56:08;99278.03;;;32.40
11926;BMP180;6022;48.768;18.608;2022-07-17T10:58:41;99270.34;;;32.63
11926;BMP180;6022;48.768;18.608;2022-07-17T11:01:19;99267.41;;;32.23
11926;BMP180;6022;48.768;18.608;2022-07-17T11:03:56;99268.13;;;32.05
11926;BMP180;6022;48.768;18.608;2022-07-17T11:06:32;99264.91;;;32.03
11926;BMP180;6022;48.768;18.608;2022-07-17T11:11:48;99269.63;;;31.45
11926;BMP180;6022;48.768;18.608;2022-07-17T11:14:23;99259.75;;;31.91
11926;BMP180;6022;48.768;18.608;2022-07-17T11:16:51;99254.84;;;32.55
11926;BMP180;6022;48.768;18.608;2022-07-17T11:19:33;99256.44;;;32.01
11926;BMP180;6022;48.768;18.608;2022-07-17T11:22:06;99248.06;;;31.80
11926;BMP180;6022;48.768;18.608;2022-07-17T11:24:41;99251.97;;;31.15
11926;BMP180;6022;48.768;18.608;2022-07-17T11:27:26;99260.88;;;30.56
11926;BMP180;6022;48.768;18.608;2022-07-17T11:29:57;99242.75;;;30.74
11926;BMP180;6022;48.768;18.608;2022-07-17T11:32:36;99245.91;;;31.15
11926;BMP180;6022;48.768;18.608;2022-07-17T11:35:20;99245.09;;;31.14
11926;BMP180;6022;48.768;18.608;2022-07-17T11:38:09;99242.97;;;31.48
11926;BMP180;6022;48.768;18.608;2022-07-17T11:40:48;99233.13;;;31.74
11926;BMP180;6022;48.768;18.608;2022-07-17T11:43:16;99243.19;;;31.90
11926;BMP180;6022;48.768;18.608;2022-07-17T11:45:44;99239.91;;;30.95
11926;BMP180;6022;48.768;18.608;2022-07-17T11:48:12;99235.28;;;30.58
11926;BMP180;6022;48.768;18.608;2022-07-17T11:50:39;99223.16;;;30.77
11926;BMP180;6022;48.768;18.608;2022-07-17T11:53:07;99229.22;;;30.77
11926;BMP180;6022;48.768;18.608;2022-07-17T11:55:37;99227.63;;;30.76
11926;BMP180;6022;48.768;18.608;2022-07-17T11:58:05;99221.34;;;29.87
11926;BMP180;6022;48.768;18.608;2022-07-17T12:00:34;99219.44;;;29.62
11926;BMP180;6022;48.768;18.608;2022-07-17T12:03:05;99216.22;;;29.54
11926;BMP180;6022;48.768;18.608;2022-07-17T12:05:36;99221.59;;;29.46
11926;BMP180;6022;48.768;18.608;2022-07-17T12:08:08;99219.19;;;29.44
11926;BMP180;6022;48.768;18.608;2022-07-17T12:10:36;99215.22;;;29.61
11926;BMP180;6022;48.768;18.608;2022-07-17T12:13:06;99211.91;;;29.99
11926;BMP180;6022;48.768;18.608;2022-07-17T12:15:57;99204.72;;;29.55
11926;BMP180;6022;48.768;18.608;2022-07-17T12:18:27;99204.88;;;29.40
11926;BMP180;6022;48.768;18.608;2022-07-17T12:21:03;99209.91;;;29.35
11926;BMP180;6022;48.768;18.608;2022-07-17T12:23:36;99206.28;;;29.03
11926;BMP180;6022;48.768;18.608;2022-07-17T12:26:15;99205.34;;;28.77
11926;BMP180;6022;48.768;18.608;2022-07-17T12:28:46;99204.50;;;29.03
11926;BMP180;6022;48.768;18.608;2022-07-17T12:31:16;99197.50;;;28.77
11926;BMP180;6022;48.768;18.608;2022-07-17T12:33:44;99194.88;;;28.70
11926;BMP180;6022;48.768;18.608;2022-07-17T12:36:11;99203.91;;;29.01
11926;BMP180;6022;48.768;18.608;2022-07-17T12:38:39;99202.31;;;29.07
11926;BMP180;6022;48.768;18.608;2022-07-17T12:41:06;99193.66;;;29.06
11926;BMP180;6022;48.768;18.608;2022-07-17T12:43:34;99189.97;;;29.28
11926;BMP180;6022;48.768;18.608;2022-07-17T12:46:01;99191.28;;;29.11
11926;BMP180;6022;48.768;18.608;2022-07-17T12:48:40;99189.56;;;28.91
11926;BMP180;6022;48.768;18.608;2022-07-17T12:51:12;99187.72;;;28.58
11926;BMP180;6022;48.768;18.608;2022-07-17T12:53:46;99182.78;;;28.42
11926;BMP180;6022;48.768;18.608;2022-07-17T12:56:14;99181.50;;;28.32
11926;BMP180;6022;48.768;18.608;2022-07-17T12:58:43;99178.00;;;28.46
11926;BMP180;6022;48.768;18.608;2022-07-17T13:01:11;99167.38;;;28.20
11926;BMP180;6022;48.768;18.608;2022-07-17T13:03:38;99184.53;;;27.87
11926;BMP180;6022;48.768;18.608;2022-07-17T13:06:06;99181.09;;;27.87
11926;BMP180;6022;48.768;18.608;2022-07-17T13:08:33;99178.13;;;28.11
11926;BMP180;6022;48.768;18.608;2022-07-17T13:11:01;99186.69;;;27.84
11926;BMP180;6022;48.768;18.608;2022-07-17T13:13:37;99178.94;;;27.35
11926;BMP180;6022;48.768;18.608;2022-07-17T13:16:14;99188.91;;;27.66
11926;BMP180;6022;48.768;18.608;2022-07-17T13:18:42;99183.66;;;28.01
11926;BMP180;6022;48.768;18.608;2022-07-17T13:21:09;99196.13;;;28.06
11926;BMP180;6022;48.768;18.608;2022-07-17T13:23:41;99196.69;;;27.80
11926;BMP180;6022;48.768;18.608;2022-07-17T13:26:09;99194.50;;;27.63
11926;BMP180;6022;48.768;18.608;2022-07-17T13:28:47;99192.06;;;28.17
11926;BMP180;6022;48.768;18.608;2022-07-17T13:31:14;99190.25;;;28.18
11926;BMP180;6022;48.768;18.608;2022-07-17T13:33:42;99191.03;;;27.77
11926;BMP180;6022;48.768;18.608;2022-07-17T13:36:10;99194.25;;;27.58
11926;BMP180;6022;48.768;18.608;2022-07-17T13:38:38;99197.88;;;27.78
11926;BMP180;6022;48.768;18.608;2022-07-17T13:41:05;99191.41;;;27.95
11926;BMP180;6022;48.768;18.608;2022-07-17T13:43:33;99194.13;;;27.87
11926;BMP180;6022;48.768;18.608;2022-07-17T13:46:01;99190.75;;;27.51
11926;BMP180;6022;48.768;18.608;2022-07-17T13:48:29;99189.78;;;27.38
11926;BMP180;6022;48.768;18.608;2022-07-17T13:50:56;99190.69;;;27.45
11926;BMP180;6022;48.768;18.608;2022-07-17T13:53:23;99192.69;;;27.43
11926;BMP180;6022;48.768;18.608;2022-07-17T13:55:51;99190.09;;;27.64
11926;BMP180;6022;48.768;18.608;2022-07-17T13:58:24;99189.66;;;27.81
11926;BMP180;6022;48.768;18.608;2022-07-17T14:00:53;99198.00;;;27.91
11926;BMP180;6022;48.768;18.608;2022-07-17T14:03:20;99187.44;;;27.57
11926;BMP180;6022;48.768;18.608;2022-07-17T14:05:50;99178.28;;;27.47
11926;BMP180;6022;48.768;18.608;2022-07-17T14:08:18;99188.06;;;27.80
11926;BMP180;6022;48.768;18.608;2022-07-17T14:10:45;99182.72;;;27.88
11926;BMP180;6022;48.768;18.608;2022-07-17T14:13:13;99181.72;;;27.68
11926;BMP180;6022;48.768;18.608;2022-07-17T14:15:40;99181.34;;;27.50
11926;BMP180;6022;48.768;18.608;2022-07-17T14:18:08;99174.13;;;27.52
11926;BMP180;6022;48.768;18.608;2022-07-17T14:20:36;99174.00;;;27.81
11926;BMP180;6022;48.768;18.608;2022-07-17T14:23:04;99175.25;;;27.85
11926;BMP180;6022;48.768;18.608;2022-07-17T14:25:32;99173.72;;;28.11
11926;BMP180;6022;48.768;18.608;2022-07-17T14:28:02;99177.88;;;28.26
11926;BMP180;6022;48.768;18.608;2022-07-17T14:30:30;99173.63;;;28.25
11926;BMP180;6022;48.768;18.608;2022-07-17T14:32:59;99178.13;;;28.11
11926;BMP180;6022;48.768;18.608;2022-07-17T14:35:26;99174.13;;;28.14